Time;durP1;ratioP1;P1;durP2;ratioP2;P2;SDS_P1;SDS_P2;PMS_P1;PMS_P2;Temp;Humidity;BMP_temperature;BMP_pressure;BME280_temperature;BME280_humidity;BME280_pressure;Samples;Min_cycle;Max_cycle;Signal;HPM_P1;HPM_P2
2022/12/13 00:00:27;;;;;;;9.90;5.60;;;-1.90;99.90;;;;;;20489231;28;20143;-40
2022/12/13 00:10:28;;;;;;;8.55;5.85;;;-1.90;99.90;;;;;;20461893;28;20130;-40
2022/12/13 00:20:29;;;;;;;12.75;4.93;;;-1.90;99.90;;;;;;20470259;28;20103;-40
2022/12/13 00:30:32;;;;;;;14.85;6.13;;;-2.00;99.90;;;;;;20485854;28;20086;-40
2022/12/13 00:40:33;;;;;;;14.20;5.93;;;-2.00;99.90;;;;;;20475748;28;20167;-40
2022/12/13 00:50:37;;;;;;;13.00;7.60;;;-2.20;99.90;;;;;;20500188;28;20537;-40
2022/12/13 01:00:38;;;;;;;11.65;5.72;;;-2.20;99.90;;;;;;20473180;28;20761;-40
2022/12/13 01:10:46;;;;;;;9.70;4.93;;;-2.20;99.90;;;;;;20512393;28;20423;-40
2022/12/13 01:21:01;;;;;;;10.73;5.30;;;-2.30;99.90;;;;;;20499832;28;20683;-40
2022/12/13 01:31:08;;;;;;;9.82;5.43;;;-2.30;99.90;;;;;;20474606;28;20865;-40
2022/12/13 01:41:18;;;;;;;9.30;4.57;;;-2.30;99.90;;;;;;20430841;28;20219;-40
2022/12/13 01:51:24;;;;;;;12.68;5.55;;;-2.30;99.90;;;;;;20415602;28;20186;-40
2022/12/13 02:01:25;;;;;;;;;;;-2.40;99.90;;;;;;20419825;28;20119;-40
2022/12/13 02:11:26;;;;;;;12.75;5.78;;;-2.30;99.90;;;;;;20413620;28;20487;-40
2022/12/13 02:21:51;;;;;;;11.25;5.25;;;-2.50;99.90;;;;;;20412264;28;20145;-40
2022/12/13 02:32:15;;;;;;;9.23;4.80;;;-2.50;99.90;;;;;;20413332;28;20228;-42
2022/12/13 02:42:40;;;;;;;11.07;5.68;;;-2.50;99.90;;;;;;20414560;28;20335;-42
2022/12/13 02:52:45;;;;;;;11.85;5.72;;;-2.50;99.90;;;;;;20392944;28;20075;-42
2022/12/13 03:03:10;;;;;;;12.88;5.90;;;-2.50;99.90;;;;;;20415054;28;20253;-42
2022/12/13 03:13:37;;;;;;;15.23;5.65;;;-2.60;99.90;;;;;;20390738;28;21209;-42
2022/12/13 03:23:38;;;;;;;11.43;6.53;;;-2.60;99.90;;;;;;20409186;28;20482;-42
2022/12/13 03:33:40;;;;;;;8.23;4.93;;;-2.60;99.90;;;;;;20416341;28;20181;-42
2022/12/13 03:43:41;;;;;;;10.93;6.15;;;-2.70;99.90;;;;;;20393236;28;20142;-42
2022/12/13 03:53:43;;;;;;;13.48;6.95;;;-2.80;99.90;;;;;;20412225;28;20070;-42
2022/12/13 04:03:46;;;;;;;13.95;6.07;;;-2.80;99.90;;;;;;20424922;28;20116;-40
2022/12/13 04:13:47;;;;;;;11.77;6.90;;;-2.90;99.90;;;;;;20451748;28;20434;-42
2022/12/13 04:23:48;;;;;;;17.83;6.22;;;-2.80;99.90;;;;;;20400006;28;20074;-42
2022/12/13 04:33:50;;;;;;;11.48;6.00;;;-2.80;99.90;;;;;;20428215;28;21911;-42
2022/12/13 04:43:52;;;;;;;18.63;6.32;;;-2.70;99.90;;;;;;20373178;28;20191;-42
2022/12/13 04:53:53;;;;;;;10.75;6.88;;;-2.70;99.90;;;;;;20370207;28;20146;-40
2022/12/13 05:03:54;;;;;;;12.65;5.78;;;-2.70;99.90;;;;;;20382168;28;20059;-40
2022/12/13 05:13:55;;;;;;;11.10;5.60;;;-2.70;99.90;;;;;;20357483;28;20126;-39
2022/12/13 05:23:56;;;;;;;13.02;6.50;;;-2.70;99.90;;;;;;20368159;28;20051;-42
2022/12/13 05:33:57;;;;;;;15.57;7.03;;;-2.70;99.90;;;;;;20416315;28;20066;-42
2022/12/13 05:43:58;;;;;;;13.77;5.57;;;-2.60;99.90;;;;;;20402924;28;20158;-42
2022/12/13 05:53:59;;;;;;;12.55;5.72;;;-2.70;99.90;;;;;;20383260;28;20599;-42
2022/12/13 06:04:00;;;;;;;14.65;7.07;;;-2.90;99.90;;;;;;20404579;28;20590;-42
2022/12/13 06:14:01;;;;;;;14.50;5.35;;;-3.00;99.90;;;;;;20417775;28;20490;-41
2022/12/13 06:24:04;;;;;;;14.98;6.63;;;-3.00;99.90;;;;;;20416988;28;20455;-42
2022/12/13 06:34:05;;;;;;;12.90;7.10;;;-3.10;99.90;;;;;;20409299;28;20090;-42
2022/12/13 06:44:06;;;;;;;20.45;7.85;;;-3.10;99.90;;;;;;20493726;28;20490;-41
2022/12/13 06:54:07;;;;;;;15.35;6.00;;;-3.10;99.90;;;;;;20483661;28;20093;-41
2022/12/13 07:04:10;;;;;;;9.88;6.60;;;-3.20;99.90;;;;;;20485073;28;20114;-42
2022/12/13 07:14:11;;;;;;;12.48;6.28;;;-3.10;99.90;;;;;;20474916;28;20126;-39
2022/12/13 07:24:12;;;;;;;12.75;6.53;;;-3.00;99.90;;;;;;20462326;28;20129;-39
2022/12/13 07:34:13;;;;;;;12.20;6.32;;;-3.00;99.90;;;;;;20456191;28;20166;-39
2022/12/13 07:44:14;;;;;;;13.60;6.32;;;-3.00;99.90;;;;;;20506985;28;20161;-39
2022/12/13 07:54:15;;;;;;;13.30;5.93;;;-3.00;99.90;;;;;;20486494;28;20127;-39
2022/12/13 08:04:16;;;;;;;18.05;7.43;;;-3.00;99.90;;;;;;20537009;28;20137;-39
2022/12/13 08:14:17;;;;;;;16.65;6.20;;;-3.00;99.90;;;;;;20498589;28;20172;-39
2022/12/13 08:24:19;;;;;;;14.57;7.72;;;-2.90;99.90;;;;;;20495638;28;20055;-39
2022/12/13 08:34:20;;;;;;;15.05;6.43;;;-2.70;99.90;;;;;;20495874;28;20074;-39
2022/12/13 08:44:21;;;;;;;14.05;6.13;;;-2.70;99.90;;;;;;20490552;28;20078;-42
2022/12/13 08:54:22;;;;;;;18.73;8.85;;;-2.60;99.90;;;;;;20489288;28;20039;-41
2022/12/13 09:04:23;;;;;;;14.27;8.32;;;-2.30;99.90;;;;;;20506457;28;20715;-39
2022/12/13 09:14:24;;;;;;;15.10;7.25;;;-2.10;99.90;;;;;;20516498;28;20575;-39
2022/12/13 09:24:25;;;;;;;21.65;9.20;;;-2.00;99.90;;;;;;20514978;28;20723;-39
2022/12/13 09:34:26;;;;;;;18.90;9.60;;;-1.90;99.90;;;;;;20529453;28;20244;-39
2022/12/13 09:44:33;;;;;;;17.30;8.82;;;-1.80;99.90;;;;;;20381613;28;20615;-39
2022/12/13 09:54:34;;;;;;;18.92;9.77;;;-1.50;99.90;;;;;;20429380;28;20156;-39
2022/12/13 10:04:35;;;;;;;23.50;11.43;;;-1.40;99.90;;;;;;20431895;28;20039;-39
2022/12/13 10:14:42;;;;;;;18.63;9.52;;;-1.30;99.90;;;;;;20432735;28;20070;-39
2022/12/13 10:25:04;;;;;;;17.08;8.77;;;-1.20;99.90;;;;;;20439767;28;20087;-39
2022/12/13 10:35:22;;;;;;;20.23;8.93;;;-1.00;99.90;;;;;;20438671;28;20367;-39
2022/12/13 10:45:23;;;;;;;17.10;10.65;;;-0.80;99.90;;;;;;20505316;28;20136;-39
2022/12/13 10:55:36;;;;;;;16.85;9.93;;;-0.50;99.90;;;;;;20503608;28;20161;-39
2022/12/13 11:05:39;;;;;;;17.00;8.75;;;-0.20;99.90;;;;;;20513039;28;20047;-39
2022/12/13 11:15:40;;;;;;;15.68;9.60;;;0.40;99.90;;;;;;20532124;28;20370;-39
2022/12/13 11:25:43;;;;;;;15.88;8.82;;;0.30;99.90;;;;;;20511273;28;20631;-40
2022/12/13 11:36:03;;;;;;;15.82;6.57;;;0.20;99.90;;;;;;20529820;28;20045;-39
2022/12/13 11:46:19;;;;;;;15.05;9.65;;;0.30;99.90;;;;;;20517852;28;20570;-39
2022/12/13 11:56:30;;;;;;;16.95;8.55;;;0.60;99.90;;;;;;20463572;28;20177;-40
2022/12/13 12:06:41;;;;;;;17.45;9.68;;;0.70;99.90;;;;;;20500184;28;20766;-39
2022/12/13 12:16:54;;;;;;;19.65;9.15;;;0.70;99.90;;;;;;20494923;28;20066;-39
2022/12/13 12:27:15;;;;;;;19.30;7.03;;;0.60;99.90;;;;;;20492840;28;22282;-39
2022/12/13 12:37:55;;;;;;;14.88;8.23;;;0.40;99.90;;;;;;20499246;28;20902;-39
2022/12/13 12:48:21;;;;;;;15.85;7.82;;;0.70;99.90;;;;;;20484149;28;20864;-39
2022/12/13 12:58:41;;;;;;;12.88;7.65;;;0.70;99.90;;;;;;20518763;28;20078;-39
2022/12/13 13:08:42;;;;;;;15.90;7.85;;;0.90;99.90;;;;;;20531898;28;20652;-39
2022/12/13 13:18:48;;;;;;;13.55;6.57;;;1.00;99.90;;;;;;20518018;28;20042;-39
2022/12/13 13:28:49;;;;;;;17.23;6.97;;;0.70;99.90;;;;;;20526429;28;20890;-39
2022/12/13 13:38:52;;;;;;;15.55;7.78;;;0.30;99.90;;;;;;20503171;28;20149;-39
2022/12/13 13:49:06;;;;;;;12.05;7.82;;;0.20;99.90;;;;;;20516330;28;20094;-40
2022/12/13 13:59:25;;;;;;;17.10;8.13;;;0.00;99.90;;;;;;20505992;28;20042;-39
2022/12/13 14:09:56;;;;;;;15.68;8.48;;;-0.10;99.90;;;;;;20515006;28;20551;-39
2022/12/13 14:20:12;;;;;;;14.75;9.05;;;-0.10;99.90;;;;;;20514464;28;21802;-39
2022/12/13 14:30:15;;;;;;;18.10;10.05;;;-0.10;99.90;;;;;;20512114;28;20673;-39
2022/12/13 14:40:29;;;;;;;24.58;11.52;;;-0.20;99.90;;;;;;20494178;28;20066;-39
2022/12/13 14:50:33;;;;;;;23.30;10.40;;;-0.30;99.90;;;;;;20508449;28;20101;-39
2022/12/13 15:00:39;;;;;;;20.33;11.13;;;-0.40;99.90;;;;;;20524459;28;20913;-39
2022/12/13 15:10:43;;;;;;;16.02;9.65;;;-0.60;99.90;;;;;;20516211;28;20505;-39
2022/12/13 15:20:46;;;;;;;18.08;10.23;;;-0.60;99.90;;;;;;20516502;28;20078;-39
2022/12/13 15:30:48;;;;;;;20.92;10.07;;;-0.70;99.90;;;;;;20518335;28;20147;-39
2022/12/13 15:40:49;;;;;;;18.17;9.35;;;-0.60;99.90;;;;;;20480574;28;20928;-39
2022/12/13 15:51:05;;;;;;;16.02;9.13;;;-0.70;99.90;;;;;;20471023;28;20105;-39
2022/12/13 16:01:27;;;;;;;16.23;9.80;;;-0.70;99.90;;;;;;20504523;28;21839;-39
2022/12/13 16:11:51;;;;;;;24.45;10.77;;;-0.70;99.90;;;;;;20528450;28;20093;-39
2022/12/13 16:21:52;;;;;;;26.80;11.68;;;-0.90;99.90;;;;;;20526689;28;20801;-39
2022/12/13 16:31:56;;;;;;;21.70;10.93;;;-0.90;99.90;;;;;;20513594;28;20052;-39
2022/12/13 16:41:57;;;;;;;13.70;8.93;;;-0.90;99.90;;;;;;20503417;28;20099;-39
2022/12/13 16:51:58;;;;;;;18.90;8.68;;;-1.00;99.90;;;;;;20510066;28;20055;-39
2022/12/13 17:01:59;;;;;;;14.75;7.53;;;-1.00;99.90;;;;;;20525442;28;20113;-39
2022/12/13 17:12:00;;;;;;;16.85;9.02;;;-1.20;99.90;;;;;;20529308;28;20050;-38
2022/12/13 17:22:01;;;;;;;12.32;7.15;;;-1.10;99.90;;;;;;20532732;28;20050;-39
2022/12/13 17:32:03;;;;;;;20.13;9.15;;;-1.20;99.90;;;;;;20530637;28;20498;-39
2022/12/13 17:42:04;;;;;;;21.35;8.57;;;-1.20;99.90;;;;;;20498700;28;20470;-38
2022/12/13 17:52:06;;;;;;;22.38;8.20;;;-1.30;99.90;;;;;;20510721;28;20050;-38
2022/12/13 18:02:10;;;;;;;16.90;8.65;;;-1.20;99.90;;;;;;20511172;28;20062;-39
2022/12/13 18:12:11;;;;;;;22.08;10.10;;;-1.30;99.90;;;;;;20527728;28;20054;-38
2022/12/13 18:22:13;;;;;;;16.52;8.55;;;-1.30;99.90;;;;;;20530195;28;20134;-39
2022/12/13 18:32:14;;;;;;;20.33;9.85;;;-1.30;99.90;;;;;;20531328;28;20110;-39
2022/12/13 18:42:15;;;;;;;20.20;7.70;;;-1.40;99.90;;;;;;20536502;28;20046;-39
2022/12/13 18:52:17;;;;;;;17.90;8.27;;;-1.50;99.90;;;;;;20516475;28;20043;-39
2022/12/13 19:02:18;;;;;;;19.67;9.02;;;-1.40;99.90;;;;;;20525875;28;20043;-39
2022/12/13 19:12:19;;;;;;;14.90;8.45;;;-1.40;99.90;;;;;;20520001;28;20055;-38
2022/12/13 19:22:20;;;;;;;21.75;9.88;;;-1.50;99.90;;;;;;20511998;28;20129;-39
2022/12/13 19:32:22;;;;;;;18.75;9.00;;;-1.50;99.90;;;;;;20433302;28;20062;-39
2022/12/13 19:42:23;;;;;;;15.63;7.53;;;-1.60;99.90;;;;;;20460486;28;20169;-39
2022/12/13 19:52:24;;;;;;;19.65;8.88;;;-1.60;99.90;;;;;;20454057;28;20138;-39
2022/12/13 20:02:25;;;;;;;15.10;8.40;;;-1.50;99.90;;;;;;20457302;28;20121;-39
2022/12/13 20:12:28;;;;;;;18.67;9.75;;;-1.50;99.90;;;;;;20472864;28;20450;-39
2022/12/13 20:22:29;;;;;;;17.20;7.78;;;-1.50;99.90;;;;;;20463025;28;20065;-39
2022/12/13 20:32:30;;;;;;;16.67;8.50;;;-1.50;99.90;;;;;;20472998;28;20574;-39
2022/12/13 20:42:32;;;;;;;28.27;8.13;;;-1.40;99.90;;;;;;20479367;28;20112;-39
2022/12/13 20:52:33;;;;;;;14.52;7.30;;;-1.50;99.90;;;;;;20472406;28;20080;-39
2022/12/13 21:02:37;;;;;;;15.75;9.35;;;-1.50;99.90;;;;;;20474835;28;20046;-38
2022/12/13 21:12:38;;;;;;;12.95;7.10;;;-1.50;99.90;;;;;;20507636;28;20106;-38
2022/12/13 21:22:39;;;;;;;14.32;7.63;;;-1.40;99.90;;;;;;20519494;28;20053;-39
2022/12/13 21:32:40;;;;;;;14.52;7.32;;;-1.40;99.90;;;;;;20514789;28;20069;-39
2022/12/13 21:42:41;;;;;;;13.43;7.72;;;-1.40;99.90;;;;;;20486221;28;20145;-38
2022/12/13 21:52:42;;;;;;;8.95;6.10;;;-1.40;99.90;;;;;;20515803;28;20043;-39
2022/12/13 22:02:43;;;;;;;13.80;8.00;;;-1.30;99.90;;;;;;20511451;28;20034;-39
2022/12/13 22:12:44;;;;;;;17.00;6.47;;;-1.30;99.90;;;;;;20528937;28;20058;-38
2022/12/13 22:22:47;;;;;;;10.65;5.80;;;-1.50;99.90;;;;;;20526299;28;20043;-38
2022/12/13 22:32:48;;;;;;;11.05;5.93;;;-1.40;99.90;;;;;;20519829;28;20090;-39
2022/12/13 22:42:49;;;;;;;13.77;5.15;;;-1.30;99.90;;;;;;20525486;28;20510;-39
2022/12/13 22:52:50;;;;;;;16.10;6.68;;;-1.30;99.90;;;;;;20526208;28;20050;-39
2022/12/13 23:02:53;;;;;;;10.82;5.97;;;-1.30;99.90;;;;;;20520890;28;20542;-38
2022/12/13 23:13:03;;;;;;;9.43;5.47;;;-1.20;99.90;;;;;;20528402;28;20174;-38
2022/12/13 23:23:04;;;;;;;11.35;4.78;;;-1.20;99.90;;;;;;20493465;28;21952;-39
2022/12/13 23:33:05;;;;;;;11.27;4.47;;;-1.10;99.90;;;;;;20496521;28;20049;-39
2022/12/13 23:43:06;;;;;;;12.95;5.88;;;-1.30;99.90;;;;;;20482856;28;20574;-39
2022/12/13 23:53:07;;;;;;;8.88;5.50;;;-1.20;99.90;;;;;;20468034;28;20046;-39
